D/T METAR WX W/DIR W/SPE G/SPE TEMP DEWP
19/06/19 16:20 EGEO 191520Z 24015KT 9999 FEW017 SCT025 14/09 Q1006 WSW (240°) 17.3mph 14°C 9°C
19/06/19 14:50 EGEO 191350Z 25018KT 9999 FEW017 SCT025 15/09 Q1006 WSW (250°) 20.7mph 15°C 9°C
19/06/19 14:20 EGEO 191320Z 23014KT 9999 FEW017 SCT025 15/10 Q1006 SW (230°) 16.1mph 15°C 10°C
19/06/19 13:50 EGEO 191250Z 22014KT 9999 FEW017 SCT025 14/09 Q1006 SW (220°) 16.1mph 14°C 9°C
19/06/19 13:20 EGEO 191220Z 22013KT 9999 FEW020 SCT046 14/10 Q1006 SW (220°) 15.0mph 14°C 10°C
19/06/19 12:50 EGEO 191150Z 23015KT 9999 -SHRA FEW019 SCT024 BKN048 13/10 Q1006 -SHRA SW (230°) 17.3mph 13°C 10°C
19/06/19 11:50 EGEO 191050Z 22013KT 9999 FEW017 SCT024 BKN044 14/09 Q1006 SW (220°) 15.0mph 14°C 9°C
19/06/19 11:20 EGEO 191020Z 21012KT 9999 VCSH FEW017 SCT024 BKN044 13/09 Q1006 VCSH SSW (210°) 13.8mph 13°C 9°C
19/06/19 10:50 EGEO 190950Z 20010KT 9999 FEW017 SCT024 BKN044 13/10 Q1006 SSW (200°) 11.5mph 13°C 10°C
19/06/19 10:20 EGEO 190920Z 20013KT 9999 FEW017 SCT024 OVC036 12/09 Q1006 SSW (200°) 15.0mph 12°C 9°C
19/06/19 09:50 EGEO 190850Z 21010KT 9999 VCSH FEW017 SCT024 OVC049 13/09 Q1006 VCSH SSW (210°) 11.5mph 13°C 9°C
19/06/19 09:20 EGEO 190820Z 20010KT 9999 FEW018 SCT021 BKN046 13/09 Q1006 SSW (200°) 11.5mph 13°C 9°C
19/06/19 08:50 EGEO 190750Z 20010KT 170V230 9999 FEW018 SCT036 OVC046 13/09 Q1006 SSW (200°) 11.5mph 13°C 9°C
19/06/19 08:20 EGEO 190720Z 20009KT 9999 FEW018 SCT030 OVC045 13/09 Q1006 SSW (200°) 10.4mph 13°C 9°C
19/06/19 07:50 EGEO 190650Z 19010KT 9999 SCT016 BKN041 13/09 Q1007 S (190°) 11.5mph 13°C 9°C
18/06/19 11:50 EGEO 181050Z 24016KT 9999 FEW018 BKN034 13/10 Q1009 WSW (240°) 18.4mph 13°C 10°C
18/06/19 11:20 EGEO 181020Z 23015KT 9999 FEW011 SCT024 SCT044 12/10 Q1009 SW (230°) 17.3mph 12°C 10°C
18/06/19 10:20 EGEO 180920Z 23015KT 9999 VCSH FEW012 SCT020 BKN031 12/10 Q1009 VCSH SW (230°) 17.3mph 12°C 10°C
18/06/19 09:50 EGEO 180850Z 22012KT 9999 VCSH FEW011 SCT020 BKN045 11/10 Q1008 VCSH SW (220°) 13.8mph 11°C 10°C
18/06/19 09:20 EGEO 180820Z 21013KT 9999 VCSH FEW013 BKN025 OVC030 11/10 Q1008 VCSH SSW (210°) 15.0mph 11°C 10°C
18/06/19 08:50 EGEO 180750Z 22013KT 9999 VCSH FEW010 BKN025 OVC037 11/09 Q1008 VCSH SW (220°) 15.0mph 11°C 9°C
18/06/19 08:20 EGEO 180720Z 23013G23KT 8000 -RADZ SCT011 OVC016 11/09 Q1008 -RA -DZ SW (230°) 15.0mph 26.5mph 11°C 9°C
17/06/19 15:20 EGEO 171420Z 21017G27KT 180V240 9999 -SHRA FEW014 BKN024 12/10 Q1006 -SHRA SSW (210°) 19.6mph 31.1mph 12°C 10°C
17/06/19 14:50 EGEO 171350Z 19010KT 160V220 8000 -SHRA BKN021 13/11 Q1006 -SHRA S (190°) 11.5mph 13°C 11°C
17/06/19 14:20 EGEO 171320Z 20013KT 160V220 9999 VCSH FEW015 BKN028 14/10 Q1006 VCSH SSW (200°) 15.0mph 14°C 10°C
17/06/19 12:50 EGEO 171150Z 20019G30KT 9999 FEW015 SCT025 15/09 Q1006 SSW (200°) 21.9mph 34.5mph 15°C 9°C
17/06/19 11:50 EGEO 171050Z 21013KT 9999 FEW020 SCT043 14/10 Q1006 SSW (210°) 15.0mph 14°C 10°C
17/06/19 11:20 EGEO 171020Z 19012KT 9999 FEW020 SCT043 13/10 Q1006 S (190°) 13.8mph 13°C 10°C
17/06/19 10:50 EGEO 170950Z 21014KT 9999 FEW016 BKN026 13/09 Q1006 SSW (210°) 16.1mph 13°C 9°C
17/06/19 10:20 EGEO 170920Z 21014KT 9999 FEW016 BKN026 13/10 Q1006 SSW (210°) 16.1mph 13°C 10°C
17/06/19 09:20 EGEO 170820Z 20011KT 9999 FEW016 BKN034 13/10 Q1006 SSW (200°) 12.7mph 13°C 10°C
17/06/19 08:50 EGEO 170750Z 19010KT 9000 VCSH FEW015 SCT037 12/10 Q1006 VCSH S (190°) 11.5mph 12°C 10°C
17/06/19 08:20 EGEO 170720Z 19010KT 9999 FEW015 SCT020 BKN045 12/10 Q1006 S (190°) 11.5mph 12°C 10°C
16/06/19 17:20 EGEO 161620Z 22010KT 180V240 9999 SCT045 16/06 Q1007 SW (220°) 11.5mph 16°C 6°C
16/06/19 16:20 EGEO 161520Z 21008KT 170V330 9999 SCT038 17/07 Q1008 SSW (210°) 9.2mph 17°C 7°C
16/06/19 15:50 EGEO 161450Z 21008KT 9999 SCT038 16/07 Q1008 SSW (210°) 9.2mph 16°C 7°C
16/06/19 15:20 EGEO 161420Z 28008KT 230V300 9999 SCT037 14/08 Q1008 W (280°) 9.2mph 14°C 8°C
16/06/19 14:20 EGEO 161320Z 18008KT 150V210 9999 SCT040 16/08 Q1008 S (180°) 9.2mph 16°C 8°C
16/06/19 13:50 EGEO 161250Z 30006KT 9999 SCT034 13/09 Q1008 WNW (300°) 6.9mph 13°C 9°C
16/06/19 12:50 EGEO 161150Z 20008KT 9999 SCT032 14/07 Q1008 SSW (200°) 9.2mph 14°C 7°C
16/06/19 11:50 EGEO 161050Z 21009KT 180V240 9999 FEW018 SCT024 13/09 Q1008 SSW (210°) 10.4mph 13°C 9°C
16/06/19 11:20 EGEO 161020Z 22010KT 9999 FEW018 SCT027 14/09 Q1008 SW (220°) 11.5mph 14°C 9°C
16/06/19 10:20 EGEO 160920Z 32005KT 9999 FEW019 SCT029 12/10 Q1008 NW (320°) 5.8mph 12°C 10°C
16/06/19 09:50 EGEO 160850Z 33005KT 9999 FEW017 SCT029 12/10 Q1008 NNW (330°) 5.8mph 12°C 10°C
16/06/19 08:50 EGEO 160750Z 28003KT 210V310 9999 FEW017 BKN029 12/09 Q1008 W (280°) 3.5mph 12°C 9°C
11/06/19 15:50 EGEO 111450Z 02013KT 350V050 9999 SCT048 16/06 Q1023 NNE (20°) 15.0mph 16°C 6°C
11/06/19 15:20 EGEO 111420Z 01017KT 9999 SCT048 15/07 Q1023 N (10°) 19.6mph 15°C 7°C
11/06/19 14:50 EGEO 111350Z 01017KT 9999 SCT048 15/07 Q1023 N (10°) 19.6mph 15°C 7°C